Weather History for KJHW - October, 2014

Change the Weather History Date:

Tuesday, October 14, 2014

  Actual Average Record
Temperature  
Mean Temperature 65 °F -  
Max Temperature 73 °F 60 °F 80 °F (1960)
Min Temperature 57 °F 35 °F 18 °F (1987)
Growing Degree Days 15 (Base 50)    
Moisture  
Dew Point 59 °F    
Average Humidity 77    
Maximum Humidity 94    
Minimum Humidity 61    
Precipitation  
Precipitation 0.00 in - - ()
Sea Level Pressure  
Sea Level Pressure 29.92 in    
Wind  
Wind Speed 14 mph (SSE)    
Max Wind Speed 24 mph    
Max Gust Speed 37 mph    
Visibility 10 miles    
Events      
Averages and records for this station are not official NWS values.
T = Trace of Precipitation, MM = Missing Value Source: NWS Daily Summary

Daily Weather History Graph

Daily Weather History Graph

Search for Another Location

Airport or City:

Trip Planner

Search our weather history database for the weather conditions in past years. The results will help you decide how hot, cold, wet, or windy it might be!

Date:

Astronomy

Oct. 14, 2014 Rise Set
Actual Time 7:28 AM EDT 6:36 PM EDT
Civil Twilight 7:00 AM EDT 7:04 PM EDT
Nautical Twilight 6:27 AM EDT 7:37 PM EDT
Astronomical Twilight 5:55 AM EDT 8:09 PM EDT
Moon 11:37 PM EDT (10/14) 1:31 PM EDT (10/14)
Length of Visible Light 12h 04m
Length of Day
11h 08m
Waning Gibbous, 61% of the Moon is Illuminated
Oct 14
Waning Gibbous
Oct 15
Last Quarter
Oct 23
New
Oct 30
First Quarter
Nov 6
Full

Hourly Weather History & Observations

Time (EDT) Temp. Dew Point Humidity Pressure Visibility Wind Dir Wind Speed Gust Speed Precip Events Conditions
12:15 AM 57.2 °F 55.4 °F 94% 30.05 in 10.0 mi SSE 11.5 mph - N/A   Partly Cloudy
12:35 AM 57.2 °F 55.4 °F 94% 30.05 in 10.0 mi SSE 11.5 mph - N/A   Scattered Clouds
12:55 AM 59.0 °F 55.4 °F 88% 30.05 in 10.0 mi South 16.1 mph 20.7 mph N/A   Overcast
1:15 AM 59.0 °F 55.4 °F 88% 30.05 in 10.0 mi SSE 12.7 mph 19.6 mph N/A   Overcast
1:35 AM 59.0 °F 55.4 °F 88% 30.04 in 10.0 mi SSE 11.5 mph 16.1 mph N/A   Overcast
1:55 AM 57.2 °F 55.4 °F 94% 30.03 in 10.0 mi SSE 10.4 mph 17.3 mph N/A   Scattered Clouds
2:15 AM 57.2 °F 55.4 °F 94% 30.02 in 10.0 mi South 12.7 mph - N/A   Clear
2:35 AM 57.2 °F 55.4 °F 94% 30.02 in 10.0 mi South 12.7 mph 17.3 mph N/A   Clear
2:55 AM 59.0 °F 55.4 °F 88% 30.02 in 10.0 mi South 10.4 mph - N/A   Clear
3:15 AM 59.0 °F 55.4 °F 88% 30.02 in 10.0 mi SSE 10.4 mph - N/A   Clear
3:35 AM 59.0 °F 55.4 °F 88% 30.01 in 10.0 mi South 8.1 mph - N/A   Clear
3:55 AM 59.0 °F 55.4 °F 88% 30.01 in 10.0 mi South 9.2 mph - N/A   Clear
4:15 AM 59.0 °F 55.4 °F 88% 30.00 in 10.0 mi South 9.2 mph - N/A   Clear
4:35 AM 59.0 °F 55.4 °F 88% 30.00 in 10.0 mi SSE 10.4 mph 17.3 mph N/A   Clear
4:55 AM 59.0 °F 55.4 °F 88% 29.99 in 10.0 mi SSE 9.2 mph 16.1 mph N/A   Clear
5:15 AM 60.8 °F 55.4 °F 82% 29.99 in 10.0 mi SSE 9.2 mph 19.6 mph N/A   Clear
5:35 AM 60.8 °F 55.4 °F 82% 29.98 in 10.0 mi South 9.2 mph - N/A   Clear
5:55 AM 60.8 °F 55.4 °F 82% 29.98 in 10.0 mi South 15.0 mph 20.7 mph N/A   Clear
6:15 AM 60.8 °F 55.4 °F 82% 29.98 in 10.0 mi SSE 10.4 mph 17.3 mph N/A   Clear
6:35 AM 60.8 °F 57.2 °F 88% 29.97 in 10.0 mi SSE 17.3 mph - N/A   Clear
6:55 AM 62.6 °F 57.2 °F 82% 29.97 in 10.0 mi South 16.1 mph 21.9 mph N/A   Partly Cloudy
7:15 AM 62.6 °F 57.2 °F 82% 29.96 in 10.0 mi SSE 12.7 mph 21.9 mph N/A   Clear
7:35 AM 62.6 °F 57.2 °F 82% 29.97 in 10.0 mi South 12.7 mph 19.6 mph N/A   Partly Cloudy
7:55 AM 62.6 °F 57.2 °F 82% 29.97 in 10.0 mi South 12.7 mph 20.7 mph N/A   Partly Cloudy
8:15 AM 64.4 °F 57.2 °F 77% 29.98 in 10.0 mi SSE 13.8 mph 21.9 mph N/A   Clear
8:35 AM 64.4 °F 59.0 °F 83% 29.98 in 10.0 mi SSE 10.4 mph 23.0 mph N/A   Mostly Cloudy
8:55 AM 64.4 °F 59.0 °F 83% 29.98 in 10.0 mi SSE 15.0 mph 27.6 mph N/A   Mostly Cloudy
9:15 AM 66.2 °F 59.0 °F 78% 29.98 in 10.0 mi South 13.8 mph 23.0 mph N/A   Scattered Clouds
9:35 AM 66.2 °F 59.0 °F 78% 29.97 in 10.0 mi SSE 15.0 mph 26.5 mph N/A   Mostly Cloudy
9:55 AM 68.0 °F 59.0 °F 73% 29.97 in 9.0 mi South 15.0 mph 23.0 mph N/A   Mostly Cloudy
10:15 AM 69.8 °F 59.0 °F 68% 29.97 in 10.0 mi SSE 16.1 mph 26.5 mph N/A   Scattered Clouds
10:35 AM 69.8 °F 59.0 °F 68% 29.96 in 10.0 mi SSE 18.4 mph 24.2 mph N/A   Scattered Clouds
10:55 AM 71.6 °F 59.0 °F 64% 29.97 in 10.0 mi South 18.4 mph 26.5 mph N/A   Scattered Clouds
11:15 AM 71.6 °F 59.0 °F 64% 29.96 in 10.0 mi South 17.3 mph 26.5 mph N/A   Partly Cloudy
11:35 AM 71.6 °F 59.0 °F 64% 29.96 in 10.0 mi South 23.0 mph 33.4 mph N/A   Mostly Cloudy
11:55 AM 71.6 °F 59.0 °F 64% 29.97 in 10.0 mi South 16.1 mph 31.1 mph N/A   Overcast
12:15 PM 69.8 °F 60.8 °F 73% 29.95 in 10.0 mi South 20.7 mph 27.6 mph N/A   Overcast
12:35 PM 71.6 °F 60.8 °F 69% 29.94 in 10.0 mi South 20.7 mph 32.2 mph N/A   Mostly Cloudy
12:55 PM 71.6 °F 59.0 °F 64% 29.93 in 10.0 mi South 17.3 mph 28.8 mph N/A   Overcast
1:15 PM 73.4 °F 60.8 °F 65% 29.91 in 10.0 mi South 21.9 mph 28.8 mph N/A   Mostly Cloudy
1:35 PM 71.6 °F 60.8 °F 69% 29.90 in 10.0 mi SSE 13.8 mph 29.9 mph N/A   Mostly Cloudy
1:55 PM 73.4 °F 60.8 °F 65% 29.89 in 10.0 mi SSE 23.0 mph 29.9 mph N/A   Mostly Cloudy
2:15 PM 73.4 °F 59.0 °F 61% 29.88 in 10.0 mi South 21.9 mph 32.2 mph N/A   Mostly Cloudy
2:35 PM 73.4 °F 59.0 °F 61% 29.87 in 10.0 mi South 20.7 mph 29.9 mph N/A   Mostly Cloudy
2:55 PM 73.4 °F 60.8 °F 65% 29.86 in 10.0 mi South 13.8 mph 28.8 mph N/A   Scattered Clouds
3:15 PM 73.4 °F 59.0 °F 61% 29.84 in 10.0 mi SSE 16.1 mph 29.9 mph N/A   Clear
3:35 PM 73.4 °F 59.0 °F 61% 29.82 in 10.0 mi SSE 24.2 mph 32.2 mph N/A   Clear
3:55 PM 73.4 °F 59.0 °F 61% 29.81 in 10.0 mi SE 19.6 mph 28.8 mph N/A   Partly Cloudy
4:15 PM 73.4 °F 60.8 °F 65% 29.82 in 10.0 mi SSE 24.2 mph 36.8 mph N/A   Mostly Cloudy
4:35 PM 71.6 °F 60.8 °F 69% 29.83 in 10.0 mi SSE 20.7 mph 29.9 mph N/A   Overcast
4:55 PM 69.8 °F 60.8 °F 73% 29.85 in 10.0 mi SSE 16.1 mph 26.5 mph N/A   Overcast
5:15 PM 69.8 °F 60.8 °F 73% 29.85 in 10.0 mi SSE 19.6 mph 26.5 mph N/A   Overcast
5:35 PM 69.8 °F 60.8 °F 73% 29.84 in 10.0 mi SSE 20.7 mph 28.8 mph N/A   Overcast
5:55 PM 69.8 °F 60.8 °F 73% 29.84 in 10.0 mi SSE 20.7 mph 27.6 mph N/A   Overcast
6:15 PM 69.8 °F 60.8 °F 73% 29.85 in 10.0 mi SSE 16.1 mph 27.6 mph N/A   Mostly Cloudy
6:35 PM 69.8 °F 60.8 °F 73% 29.85 in 10.0 mi South 16.1 mph 26.5 mph N/A   Mostly Cloudy
6:55 PM 69.8 °F 60.8 °F 73% 29.85 in 10.0 mi South 13.8 mph 21.9 mph N/A   Mostly Cloudy
7:15 PM 69.8 °F 60.8 °F 73% 29.84 in 10.0 mi South 17.3 mph 26.5 mph N/A   Scattered Clouds
7:35 PM 69.8 °F 60.8 °F 73% 29.84 in 10.0 mi SSE 17.3 mph 23.0 mph N/A   Clear
7:55 PM 68.0 °F 60.8 °F 78% 29.84 in 10.0 mi SSE 13.8 mph 23.0 mph N/A   Mostly Cloudy
8:15 PM 69.8 °F 60.8 °F 73% 29.83 in 10.0 mi SSE 15.0 mph 25.3 mph N/A   Mostly Cloudy
8:35 PM 69.8 °F 60.8 °F 73% 29.84 in 10.0 mi SSE 16.1 mph 28.8 mph N/A   Mostly Cloudy
8:55 PM 69.8 °F 60.8 °F 73% 29.84 in 10.0 mi SSE 19.6 mph 24.2 mph N/A   Overcast
9:15 PM 69.8 °F 60.8 °F 73% 29.85 in 10.0 mi SSE 15.0 mph 23.0 mph N/A   Overcast
9:35 PM 69.8 °F 60.8 °F 73% 29.84 in 10.0 mi SSE 11.5 mph 21.9 mph N/A   Overcast
9:55 PM 68.0 °F 60.8 °F 78% 29.83 in 10.0 mi SSE 15.0 mph 27.6 mph N/A   Overcast
10:15 PM 68.0 °F 60.8 °F 78% 29.83 in 10.0 mi SSE 13.8 mph 24.2 mph N/A   Overcast
10:35 PM 69.8 °F 60.8 °F 73% 29.82 in 10.0 mi SSE 12.7 mph 23.0 mph N/A   Overcast
10:55 PM 68.0 °F 60.8 °F 78% 29.82 in 10.0 mi SSE 16.1 mph 25.3 mph N/A   Overcast
11:15 PM 68.0 °F 60.8 °F 78% 29.81 in 10.0 mi SSE 15.0 mph 23.0 mph N/A   Overcast
11:35 PM 66.2 °F 60.8 °F 83% 29.81 in 10.0 mi SSE 18.4 mph 25.3 mph N/A   Overcast
11:55 PM 66.2 °F 60.8 °F 83% 29.80 in 10.0 mi SSE 15.0 mph 23.0 mph N/A   Overcast